CheckWX is a tool to help pilots better visualize weather data.  It is not intended as a substitute for an official pre-flight weather briefing.

09:26:47 UTC

KRFD METAR
Chicago / Rockford International Airport
Chicago/Rockford, Illinois, USA
Current

33 mins ago

KRFD 220854Z 13014G27KT 10SM OVC011 12/09 A2980 RMK AO2 PK WND 14027/0847 SLP093 60001 T01170094 55008
Observed
May-22 @ 08:54 UTC
Wind
  • 130° at 14 KTS
  • Gusting to 27 KTS
Visibility
10 SM
Flight Rules
MVFR
Cloud Levels
  • Overcast at 1,100' AGL
Temperature
12°C / 54°F
Dewpoint
C / 48°F
Humidity
82%
Altimeter
29.8" Hg
Pressure
1009.12 hPa
Previous

1 hour ago

KRFD 220808Z 14013KT 10SM OVC014 12/09 A2979 RMK AO2 T01170094
Observed
May-22 @ 08:08 UTC
Wind
  • 140° at 13 KTS
Visibility
10 SM
Flight Rules
MVFR
Cloud Levels
  • Overcast at 1,400' AGL
Temperature
12°C / 54°F
Dewpoint
C / 48°F
Humidity
82%
Altimeter
29.79" Hg
Pressure
1008.82 hPa
Previous

2 hours ago

KRFD 220754Z 14017G26KT 10SM BKN015 OVC150 12/09 A2980 RMK AO2 PK WND 10032/0714 RAE06 SLP093 P0000 T01170094
Observed
May-22 @ 07:54 UTC
Wind
  • 140° at 17 KTS
  • Gusting to 26 KTS
Visibility
10 SM
Flight Rules
MVFR
Cloud Levels
  • Broken at 1,500' AGL
  • Overcast at 15,000' AGL
Temperature
12°C / 54°F
Dewpoint
C / 48°F
Humidity
82%
Altimeter
29.8" Hg
Pressure
1009.12 hPa
Current Rain
0.01"